Time;durP1;ratioP1;P1;durP2;ratioP2;P2;SDS_P1;SDS_P2;PMS_P1;PMS_P2;Temp;Humidity;BMP_temperature;BMP_pressure;BME280_temperature;BME280_humidity;BME280_pressure;Samples;Min_cycle;Max_cycle;Signal;HPM_P1;HPM_P2
2023/06/15 00:00:58;;;;;;;1.40;1.30;;;20.90;84.00;;;;;;5069703;28;20197;-64
2023/06/15 00:03:26;;;;;;;1.17;1.17;;;20.90;84.00;;;;;;5074543;28;20195;-63
2023/06/15 00:05:53;;;;;;;1.23;1.23;;;20.90;84.00;;;;;;5071646;28;20330;-63
2023/06/15 00:08:21;;;;;;;1.67;1.30;;;20.90;84.10;;;;;;5074830;28;20197;-63
2023/06/15 00:10:48;;;;;;;2.35;1.10;;;20.90;84.10;;;;;;5082112;28;20193;-63
2023/06/15 00:13:18;;;;;;;1.42;1.33;;;20.90;84.20;;;;;;5072085;28;20216;-64
2023/06/15 00:15:48;;;;;;;1.23;1.20;;;20.90;84.20;;;;;;5072471;28;20761;-63
2023/06/15 00:18:17;;;;;;;1.52;1.30;;;20.90;84.30;;;;;;5057234;28;20579;-63
2023/06/15 00:20:45;;;;;;;1.20;1.20;;;20.90;84.40;;;;;;5051928;28;20237;-63
2023/06/15 00:23:12;;;;;;;1.30;1.20;;;20.80;84.30;;;;;;5057204;28;20196;-63
2023/06/15 00:25:40;;;;;;;1.30;1.20;;;20.90;84.60;;;;;;5071591;28;20229;-64
2023/06/15 00:28:08;;;;;;;1.40;1.40;;;20.90;84.90;;;;;;5068321;28;20698;-63
2023/06/15 00:30:36;;;;;;;1.20;1.20;;;20.90;85.20;;;;;;5072039;28;20925;-64
2023/06/15 00:33:06;;;;;;;1.80;1.60;;;20.80;85.30;;;;;;5070547;28;20211;-64
2023/06/15 00:35:38;;;;;;;1.48;1.38;;;20.80;85.60;;;;;;5071569;28;20537;-64
2023/06/15 00:38:05;;;;;;;1.30;1.30;;;20.80;85.80;;;;;;5070069;28;20204;-63
2023/06/15 00:40:33;;;;;;;1.75;1.63;;;20.80;86.00;;;;;;5072007;28;20193;-63
2023/06/15 00:43:00;;;;;;;1.50;1.40;;;20.80;86.30;;;;;;5055233;28;20210;-64
2023/06/15 00:45:31;;;;;;;3.05;1.85;;;20.80;86.50;;;;;;5052535;28;20285;-63
2023/06/15 00:48:01;;;;;;;1.75;1.60;;;20.80;86.90;;;;;;5051982;28;20202;-63
2023/06/15 00:50:30;;;;;;;1.50;1.40;;;20.70;87.30;;;;;;5070477;28;20668;-63
2023/06/15 00:53:03;;;;;;;3.15;1.40;;;20.80;87.60;;;;;;5071411;28;20201;-64
2023/06/15 00:55:32;;;;;;;3.83;1.45;;;20.70;87.70;;;;;;5071325;28;20818;-64
2023/06/15 00:58:00;;;;;;;1.50;1.40;;;20.70;87.80;;;;;;5070374;28;20223;-63
2023/06/15 01:00:30;;;;;;;1.25;1.25;;;20.70;88.00;;;;;;5051218;28;20653;-63
2023/06/15 01:03:02;;;;;;;4.18;1.30;;;20.70;88.10;;;;;;5052608;28;20228;-63
2023/06/15 01:05:30;;;;;;;1.50;1.40;;;20.60;88.00;;;;;;5037672;28;20288;-63
2023/06/15 01:08:01;;;;;;;1.25;1.17;;;20.60;88.00;;;;;;5070639;28;20644;-63
2023/06/15 01:10:32;;;;;;;1.40;1.30;;;20.60;88.20;;;;;;5070852;28;20644;-63
2023/06/15 01:13:01;;;;;;;1.25;1.15;;;20.60;88.40;;;;;;5073774;28;20829;-63
2023/06/15 01:15:32;;;;;;;1.10;1.10;;;20.60;88.50;;;;;;5048257;28;20534;-63
2023/06/15 01:18:03;;;;;;;1.20;1.20;;;20.60;88.40;;;;;;5068747;28;20205;-63
2023/06/15 01:20:39;;;;;;;1.27;1.25;;;20.60;88.40;;;;;;5074502;28;20185;-64
2023/06/15 01:23:19;;;;;;;1.00;1.00;;;20.60;88.50;;;;;;5051199;28;20205;-64
2023/06/15 01:26:05;;;;;;;1.10;1.10;;;20.60;88.70;;;;;;5070710;28;20232;-64
2023/06/15 01:28:34;;;;;;;1.13;1.13;;;20.60;88.90;;;;;;5070679;28;20251;-63
2023/06/15 01:31:03;;;;;;;1.25;1.20;;;20.60;89.10;;;;;;5069535;28;20654;-64
2023/06/15 01:33:31;;;;;;;1.20;1.10;;;20.60;89.20;;;;;;5051442;28;20206;-64
2023/06/15 01:35:59;;;;;;;1.30;1.30;;;20.60;89.50;;;;;;5073002;28;20573;-64
2023/06/15 01:38:29;;;;;;;1.52;1.42;;;20.50;89.60;;;;;;5073351;28;20200;-64
2023/06/15 01:41:00;;;;;;;1.50;1.20;;;20.50;90.00;;;;;;5058418;28;20708;-63
2023/06/15 01:43:32;;;;;;;2.55;1.80;;;20.50;90.10;;;;;;5070574;28;20285;-63
2023/06/15 01:46:01;;;;;;;2.38;1.40;;;20.50;90.40;;;;;;5070271;28;20189;-64
2023/06/15 01:48:28;;;;;;;1.63;1.52;;;20.50;90.50;;;;;;5071535;28;20560;-65
2023/06/15 01:50:56;;;;;;;2.35;1.40;;;20.40;90.70;;;;;;5078309;28;20209;-64
2023/06/15 01:53:24;;;;;;;1.20;1.20;;;20.40;91.00;;;;;;5070132;28;20203;-64
2023/06/15 01:55:52;;;;;;;1.38;1.27;;;20.40;91.20;;;;;;5076970;28;20216;-65
2023/06/15 01:58:21;;;;;;;1.30;1.30;;;20.40;91.50;;;;;;5047709;28;20765;-65
2023/06/15 02:00:48;;;;;;;1.40;1.30;;;20.40;91.80;;;;;;5069626;28;20231;-65
2023/06/15 02:03:16;;;;;;;1.45;1.35;;;20.30;92.00;;;;;;5050446;28;20209;-65
2023/06/15 02:05:43;;;;;;;1.50;1.40;;;20.30;92.30;;;;;;5047780;28;20287;-65
2023/06/15 02:08:12;;;;;;;1.33;1.23;;;20.30;92.60;;;;;;5048598;28;20213;-65
2023/06/15 02:10:41;;;;;;;1.45;1.30;;;20.30;92.80;;;;;;5053451;28;20684;-64
2023/06/15 02:13:11;;;;;;;1.30;1.30;;;20.30;93.10;;;;;;5051590;28;20232;-65
2023/06/15 02:15:40;;;;;;;2.50;1.45;;;20.40;93.30;;;;;;5069377;28;20700;-65
2023/06/15 02:18:12;;;;;;;2.55;1.13;;;20.40;93.50;;;;;;5053569;28;20208;-65
2023/06/15 02:20:41;;;;;;;1.88;1.50;;;20.30;93.80;;;;;;5069683;28;20189;-65
2023/06/15 02:23:09;;;;;;;2.15;1.50;;;20.30;94.00;;;;;;5071095;28;20515;-65
2023/06/15 02:25:36;;;;;;;1.50;1.40;;;20.30;94.20;;;;;;5069166;28;20229;-65
2023/06/15 02:28:04;;;;;;;1.13;1.13;;;20.30;94.40;;;;;;5068362;28;20209;-65
2023/06/15 02:30:32;;;;;;;1.30;1.20;;;20.30;94.60;;;;;;5049465;28;20731;-65
2023/06/15 02:33:01;;;;;;;1.20;1.10;;;20.30;94.70;;;;;;5050691;28;20265;-65
2023/06/15 02:35:29;;;;;;;1.50;1.40;;;20.40;94.90;;;;;;5050116;28;20259;-65
2023/06/15 02:37:57;;;;;;;1.67;1.45;;;20.30;95.00;;;;;;5055633;28;20220;-65
2023/06/15 02:40:24;;;;;;;1.45;1.35;;;20.40;95.10;;;;;;5070146;28;20212;-65
2023/06/15 02:42:52;;;;;;;1.30;1.30;;;20.40;95.20;;;;;;5050699;28;20676;-65
2023/06/15 02:45:21;;;;;;;1.20;1.20;;;20.40;95.30;;;;;;5075284;28;20192;-65
2023/06/15 02:47:48;;;;;;;1.70;1.60;;;20.40;95.40;;;;;;5052189;28;20212;-65
2023/06/15 02:50:18;;;;;;;1.60;1.50;;;20.40;95.40;;;;;;5047677;28;20290;-65
2023/06/15 02:52:53;;;;;;;1.83;1.50;;;20.50;95.50;;;;;;5052719;28;20215;-65
2023/06/15 02:55:21;;;;;;;1.45;1.45;;;20.40;95.60;;;;;;5056835;28;20229;-65
2023/06/15 02:57:49;;;;;;;1.42;1.33;;;20.40;95.60;;;;;;5059424;28;20564;-65
2023/06/15 03:00:23;;;;;;;1.60;1.50;;;20.40;95.60;;;;;;5055424;28;20827;-65
2023/06/15 03:03:00;;;;;;;1.73;1.60;;;20.40;95.70;;;;;;5046952;28;20282;-65
2023/06/15 03:05:35;;;;;;;1.67;1.58;;;20.40;95.80;;;;;;5048141;28;20730;-65
2023/06/15 03:08:05;;;;;;;1.30;1.20;;;20.40;95.80;;;;;;5052402;28;20615;-65
2023/06/15 03:10:39;;;;;;;1.52;1.42;;;20.40;95.80;;;;;;5066822;28;20204;-65
2023/06/15 03:13:06;;;;;;;1.40;1.30;;;20.40;95.80;;;;;;5045222;28;20747;-65
2023/06/15 03:15:35;;;;;;;1.67;1.58;;;20.40;95.80;;;;;;5049293;28;20395;-65
2023/06/15 03:18:07;;;;;;;1.63;1.52;;;20.40;95.80;;;;;;5056896;28;20272;-65
2023/06/15 03:20:37;;;;;;;1.55;1.45;;;20.40;95.80;;;;;;5066585;28;20203;-65
2023/06/15 03:23:04;;;;;;;1.33;1.33;;;20.40;95.80;;;;;;5047161;28;20224;-65
2023/06/15 03:25:32;;;;;;;1.50;1.40;;;20.30;95.80;;;;;;5049999;28;20391;-65
2023/06/15 03:28:00;;;;;;;1.40;1.30;;;20.30;95.70;;;;;;5068730;28;20366;-65
2023/06/15 03:30:30;;;;;;;1.75;1.65;;;20.30;95.70;;;;;;5048793;28;20627;-65
2023/06/15 03:32:59;;;;;;;1.38;1.27;;;20.30;95.70;;;;;;5051513;28;20705;-65
2023/06/15 03:35:28;;;;;;;1.40;1.40;;;20.30;95.70;;;;;;5051714;28;20296;-65
2023/06/15 03:37:57;;;;;;;1.27;1.27;;;20.30;95.70;;;;;;5065621;28;20212;-65
2023/06/15 03:40:24;;;;;;;1.60;1.50;;;20.30;95.70;;;;;;5050344;28;20240;-64
2023/06/15 03:42:52;;;;;;;1.58;1.50;;;20.30;95.60;;;;;;5073048;28;20197;-65
2023/06/15 03:45:20;;;;;;;1.35;1.30;;;20.30;95.60;;;;;;5049744;28;20303;-65
2023/06/15 03:47:50;;;;;;;1.33;1.30;;;20.30;95.60;;;;;;5049583;28;20755;-65
2023/06/15 03:50:17;;;;;;;1.25;1.20;;;20.30;95.60;;;;;;5076810;28;20196;-65
2023/06/15 03:52:45;;;;;;;2.40;1.65;;;20.30;95.50;;;;;;5068140;28;20220;-65
2023/06/15 03:55:14;;;;;;;2.33;2.10;;;20.30;95.50;;;;;;5069122;28;20205;-65
2023/06/15 03:57:41;;;;;;;1.60;1.50;;;20.30;95.50;;;;;;5051767;28;20290;-65
2023/06/15 04:00:10;;;;;;;1.70;1.60;;;20.30;95.50;;;;;;5068284;28;20472;-65
2023/06/15 04:02:40;;;;;;;1.42;1.33;;;20.30;95.50;;;;;;5068481;28;20279;-65
2023/06/15 04:05:10;;;;;;;1.40;1.40;;;20.30;95.40;;;;;;5064205;28;20196;-65
2023/06/15 04:07:39;;;;;;;1.48;1.40;;;20.30;95.50;;;;;;5066201;28;20624;-65
2023/06/15 04:10:08;;;;;;;1.60;1.50;;;20.30;95.50;;;;;;5049929;28;20207;-65
2023/06/15 04:12:37;;;;;;;1.40;1.30;;;20.20;95.80;;;;;;5060606;28;20244;-65
2023/06/15 04:15:06;;;;;;;1.20;1.20;;;20.20;95.60;;;;;;5068254;28;20283;-65
2023/06/15 04:17:35;;;;;;;1.45;1.40;;;20.20;95.60;;;;;;5054927;28;20216;-65
2023/06/15 04:20:04;;;;;;;1.10;1.10;;;20.20;95.70;;;;;;5065085;28;20213;-65
2023/06/15 04:22:34;;;;;;;1.15;1.15;;;20.20;95.70;;;;;;5066174;28;20722;-65
2023/06/15 04:25:01;;;;;;;1.23;1.20;;;20.30;95.80;;;;;;5058399;28;20211;-65
2023/06/15 04:27:31;;;;;;;1.20;1.20;;;20.20;95.80;;;;;;5051472;28;20237;-65
2023/06/15 04:30:00;;;;;;;1.80;1.70;;;20.20;95.80;;;;;;5050077;28;20212;-65
2023/06/15 04:32:29;;;;;;;1.50;1.40;;;20.20;95.90;;;;;;5057140;28;20201;-65
2023/06/15 04:34:57;;;;;;;1.80;1.70;;;20.10;95.90;;;;;;5046287;28;20247;-65
2023/06/15 04:37:28;;;;;;;1.58;1.48;;;20.10;96.00;;;;;;5049873;28;20208;-65
2023/06/15 04:39:59;;;;;;;1.55;1.45;;;20.10;96.00;;;;;;5055521;28;20314;-65
2023/06/15 04:42:32;;;;;;;1.60;1.50;;;20.10;96.10;;;;;;5049591;28;20297;-65
2023/06/15 04:45:03;;;;;;;1.70;1.60;;;20.10;96.10;;;;;;5066255;28;20231;-65
2023/06/15 04:47:31;;;;;;;1.30;1.30;;;20.00;96.20;;;;;;5065214;28;20220;-65
2023/06/15 04:49:58;;;;;;;3.10;1.25;;;20.00;96.20;;;;;;5069760;28;20189;-65
2023/06/15 04:52:26;;;;;;;5.03;1.60;;;19.90;96.30;;;;;;5069708;28;20223;-65
2023/06/15 04:54:53;;;;;;;2.58;1.73;;;19.90;96.30;;;;;;5072859;28;20333;-65
2023/06/15 04:57:21;;;;;;;2.10;1.90;;;19.90;96.30;;;;;;5053111;28;20197;-65
2023/06/15 04:59:49;;;;;;;2.97;1.58;;;19.90;96.30;;;;;;5053058;28;20691;-65
2023/06/15 05:02:18;;;;;;;1.50;1.45;;;19.90;96.40;;;;;;5069356;28;20224;-65
2023/06/15 05:04:46;;;;;;;3.72;1.55;;;19.90;96.40;;;;;;5049720;28;20286;-65
2023/06/15 05:07:14;;;;;;;2.40;2.10;;;19.80;96.50;;;;;;5048798;28;20204;-65
2023/06/15 05:09:47;;;;;;;2.20;2.00;;;19.90;96.60;;;;;;5054640;28;20224;-65
2023/06/15 05:12:22;;;;;;;3.97;1.73;;;19.90;96.70;;;;;;5055785;28;20675;-65
2023/06/15 05:14:50;;;;;;;1.92;1.83;;;19.90;96.60;;;;;;5052250;28;20231;-64
2023/06/15 05:17:19;;;;;;;2.65;2.10;;;19.90;96.60;;;;;;5052072;28;20660;-64
2023/06/15 05:19:47;;;;;;;2.20;2.10;;;19.80;96.60;;;;;;5054676;28;20989;-64
2023/06/15 05:22:17;;;;;;;1.70;1.60;;;19.80;96.60;;;;;;5077100;28;20655;-64
2023/06/15 05:24:45;;;;;;;2.38;2.17;;;19.90;96.70;;;;;;5057451;28;21004;-64
2023/06/15 05:27:15;;;;;;;2.15;2.05;;;19.90;96.70;;;;;;5037696;28;20230;-65
2023/06/15 05:29:46;;;;;;;1.80;1.70;;;19.90;96.70;;;;;;5038619;28;20278;-65
2023/06/15 05:32:14;;;;;;;1.75;1.65;;;19.80;96.70;;;;;;5043904;28;20521;-63
2023/06/15 05:34:43;;;;;;;2.80;1.80;;;19.70;96.70;;;;;;5045429;28;20638;-64
2023/06/15 05:37:12;;;;;;;2.42;2.22;;;19.70;96.80;;;;;;5048873;28;20226;-64
2023/06/15 05:39:40;;;;;;;2.30;2.10;;;19.70;96.90;;;;;;5046271;28;20597;-65
2023/06/15 05:42:10;;;;;;;2.50;2.30;;;19.70;97.00;;;;;;5029313;28;20207;-65
2023/06/15 05:44:41;;;;;;;2.50;2.30;;;19.70;97.00;;;;;;5050182;28;20653;-64
2023/06/15 05:47:09;;;;;;;2.25;2.13;;;19.80;97.10;;;;;;5029403;28;20202;-65
2023/06/15 05:49:37;;;;;;;4.53;2.40;;;19.80;97.10;;;;;;5045641;28;20297;-64
2023/06/15 05:52:08;;;;;;;3.08;2.70;;;19.80;97.20;;;;;;5049040;28;20203;-64
2023/06/15 05:54:35;;;;;;;3.83;3.30;;;19.80;97.20;;;;;;5042960;28;20213;-64
2023/06/15 05:57:03;;;;;;;4.13;3.72;;;19.80;97.40;;;;;;5045497;28;20227;-63
2023/06/15 05:59:31;;;;;;;5.00;3.40;;;19.70;97.50;;;;;;5042869;28;20273;-64
2023/06/15 06:01:59;;;;;;;2.75;2.55;;;19.70;97.80;;;;;;5019627;28;20210;-66
2023/06/15 06:04:27;;;;;;;6.53;2.72;;;19.60;97.90;;;;;;5025221;28;20206;-64
2023/06/15 06:06:54;;;;;;;2.58;2.38;;;19.60;98.10;;;;;;5027803;28;20191;-65
2023/06/15 06:09:23;;;;;;;2.13;2.00;;;19.60;98.20;;;;;;5042239;28;20195;-66
2023/06/15 06:11:51;;;;;;;2.55;2.33;;;19.50;98.30;;;;;;5025660;28;20284;-66
2023/06/15 06:14:19;;;;;;;2.10;2.00;;;19.50;98.40;;;;;;5026071;28;20186;-66
2023/06/15 06:16:47;;;;;;;2.35;1.80;;;19.40;98.50;;;;;;5024334;28;20227;-66
2023/06/15 06:19:14;;;;;;;2.00;1.90;;;19.40;98.70;;;;;;5027573;28;20701;-66
2023/06/15 06:21:42;;;;;;;3.33;1.73;;;19.40;98.80;;;;;;5026472;28;20209;-67
2023/06/15 06:24:13;;;;;;;2.85;2.15;;;19.40;98.90;;;;;;5014507;28;20744;-68
2023/06/15 06:26:42;;;;;;;1.73;1.63;;;19.40;99.10;;;;;;5056788;28;20234;-68
2023/06/15 06:29:09;;;;;;;3.08;1.90;;;19.40;99.20;;;;;;5048035;28;20555;-68
2023/06/15 06:31:37;;;;;;;1.63;1.52;;;19.40;99.30;;;;;;5046173;28;20568;-68
2023/06/15 06:34:05;;;;;;;2.95;2.00;;;19.50;99.40;;;;;;5050333;28;20304;-68
2023/06/15 06:36:33;;;;;;;1.80;1.70;;;19.60;99.50;;;;;;5043359;28;20246;-68
2023/06/15 06:39:00;;;;;;;1.98;1.88;;;19.60;99.60;;;;;;5055805;28;20201;-68
2023/06/15 06:41:28;;;;;;;2.25;1.90;;;19.60;99.70;;;;;;5048688;28;20185;-68
2023/06/15 06:43:57;;;;;;;1.90;1.80;;;19.60;99.90;;;;;;5048554;28;20205;-68
2023/06/15 06:46:24;;;;;;;2.08;1.90;;;19.50;99.90;;;;;;5047714;28;20193;-68
2023/06/15 06:48:52;;;;;;;2.20;2.03;;;19.50;99.90;;;;;;5050192;28;20290;-67
2023/06/15 06:51:19;;;;;;;2.13;1.80;;;19.50;99.90;;;;;;5047871;28;20552;-67
2023/06/15 06:53:47;;;;;;;1.55;1.45;;;19.50;99.90;;;;;;5047389;28;20205;-66
2023/06/15 06:56:14;;;;;;;2.72;1.70;;;19.50;99.90;;;;;;5061468;28;20233;-67
2023/06/15 06:58:42;;;;;;;2.05;1.90;;;19.60;99.90;;;;;;5048042;28;20186;-67
2023/06/15 07:01:11;;;;;;;2.00;1.90;;;19.50;99.90;;;;;;5047055;28;20255;-67
2023/06/15 07:03:39;;;;;;;1.70;1.60;;;19.50;99.90;;;;;;5048986;28;20675;-67
2023/06/15 07:06:08;;;;;;;2.00;1.90;;;19.50;99.90;;;;;;5047718;28;20343;-67
2023/06/15 07:08:35;;;;;;;2.28;1.90;;;19.50;99.90;;;;;;5060308;28;20633;-68
2023/06/15 07:11:03;;;;;;;1.92;1.83;;;19.50;99.90;;;;;;5050895;28;20541;-67
2023/06/15 07:13:30;;;;;;;3.08;1.85;;;19.50;99.90;;;;;;5046916;28;20202;-67
2023/06/15 07:15:58;;;;;;;1.75;1.65;;;19.50;99.90;;;;;;5046232;28;20635;-67
2023/06/15 07:18:27;;;;;;;1.88;1.77;;;19.60;99.90;;;;;;5041151;28;20208;-67
2023/06/15 07:20:55;;;;;;;1.75;1.65;;;19.60;99.90;;;;;;5046017;28;20192;-67
2023/06/15 07:23:22;;;;;;;2.92;1.63;;;19.60;99.90;;;;;;5048051;28;20285;-67
2023/06/15 07:25:50;;;;;;;1.60;1.50;;;19.70;99.90;;;;;;5055802;28;20358;-66
2023/06/15 07:28:18;;;;;;;2.10;1.90;;;19.70;99.90;;;;;;5067486;28;20201;-67
2023/06/15 07:30:49;;;;;;;2.00;1.90;;;20.00;99.90;;;;;;5067743;28;20697;-67
2023/06/15 07:33:19;;;;;;;1.70;1.60;;;20.10;99.90;;;;;;5067473;28;20284;-67
2023/06/15 07:35:48;;;;;;;1.67;1.38;;;20.20;99.90;;;;;;5052608;28;20266;-67
2023/06/15 07:38:15;;;;;;;1.88;1.77;;;20.40;99.90;;;;;;5068226;28;20220;-67
2023/06/15 07:40:43;;;;;;;1.40;1.40;;;20.50;99.90;;;;;;5070817;28;20188;-67
2023/06/15 07:43:10;;;;;;;1.42;1.42;;;20.60;99.90;;;;;;5066557;28;20252;-66
2023/06/15 07:45:38;;;;;;;1.35;1.35;;;20.70;99.90;;;;;;5069554;28;20606;-67
2023/06/15 07:48:06;;;;;;;1.30;1.30;;;20.80;99.90;;;;;;5065493;28;20197;-67
2023/06/15 07:50:34;;;;;;;1.55;1.17;;;20.80;99.90;;;;;;5066301;28;20197;-67
2023/06/15 07:53:06;;;;;;;1.10;1.10;;;20.90;99.90;;;;;;5071115;28;20674;-65
2023/06/15 07:55:33;;;;;;;1.40;1.30;;;20.90;99.90;;;;;;5066812;28;20201;-65
2023/06/15 07:58:01;;;;;;;1.38;1.27;;;21.00;99.80;;;;;;5067057;28;20228;-65
2023/06/15 08:00:28;;;;;;;1.63;1.52;;;21.00;99.80;;;;;;5068513;28;20284;-66
2023/06/15 08:03:02;;;;;;;1.58;1.48;;;21.10;99.70;;;;;;5066685;28;20276;-66
2023/06/15 08:05:29;;;;;;;1.45;1.35;;;21.10;99.50;;;;;;5048816;28;20200;-66
2023/06/15 08:07:57;;;;;;;1.40;1.30;;;21.20;99.50;;;;;;5046684;28;20236;-66
2023/06/15 08:10:26;;;;;;;1.15;1.15;;;21.20;99.40;;;;;;5066849;28;20279;-66
2023/06/15 08:12:53;;;;;;;1.45;1.35;;;21.20;99.30;;;;;;5063736;28;20196;-66
2023/06/15 08:15:21;;;;;;;2.58;1.73;;;21.30;99.20;;;;;;5066351;28;20291;-67
2023/06/15 08:17:48;;;;;;;1.75;1.65;;;21.30;99.00;;;;;;5047262;28;20772;-66
2023/06/15 08:20:16;;;;;;;2.65;1.70;;;21.30;98.70;;;;;;5049164;28;20216;-66
2023/06/15 08:22:43;;;;;;;3.55;2.20;;;21.40;98.50;;;;;;5059555;28;20300;-66
2023/06/15 08:25:12;;;;;;;3.25;2.95;;;21.40;98.20;;;;;;5068541;28;20663;-67
2023/06/15 08:27:42;;;;;;;2.95;2.70;;;21.50;97.60;;;;;;5058153;28;20291;-67
2023/06/15 08:30:11;;;;;;;4.25;2.97;;;21.60;97.30;;;;;;5069599;28;20478;-67
2023/06/15 08:32:38;;;;;;;3.30;2.30;;;21.60;96.90;;;;;;5069879;28;20201;-67
2023/06/15 08:35:07;;;;;;;2.00;1.90;;;21.80;96.90;;;;;;5069338;28;20284;-66
2023/06/15 08:37:35;;;;;;;2.22;2.10;;;21.80;96.80;;;;;;5068661;28;20221;-66
2023/06/15 08:40:07;;;;;;;1.80;1.70;;;21.80;96.80;;;;;;5069834;28;20193;-66
2023/06/15 08:42:35;;;;;;;1.65;1.55;;;21.80;96.70;;;;;;5071600;28;20670;-66
2023/06/15 08:45:31;;;;;;;1.60;1.50;;;21.70;96.70;;;;;;5069997;28;20200;-66
2023/06/15 08:48:03;;;;;;;1.50;1.40;;;21.70;96.80;;;;;;5059066;28;20764;-66
2023/06/15 08:50:31;;;;;;;2.80;1.73;;;21.60;96.90;;;;;;5064788;28;20208;-66
2023/06/15 08:52:59;;;;;;;1.90;1.35;;;21.60;96.90;;;;;;5065310;28;20280;-66
2023/06/15 08:55:30;;;;;;;2.05;1.58;;;21.50;96.80;;;;;;5067289;28;20193;-66
2023/06/15 08:57:59;;;;;;;1.52;1.42;;;21.50;96.70;;;;;;5069592;28;20209;-66
2023/06/15 09:00:27;;;;;;;1.80;1.70;;;21.50;96.70;;;;;;5068162;28;20194;-67
2023/06/15 09:02:58;;;;;;;4.18;1.75;;;21.50;96.60;;;;;;5067280;28;20188;-66
2023/06/15 09:05:27;;;;;;;1.65;1.55;;;21.50;96.50;;;;;;5069536;28;20221;-63
2023/06/15 09:07:55;;;;;;;1.60;1.50;;;21.50;96.40;;;;;;5063448;28;20644;-63
2023/06/15 09:10:27;;;;;;;1.65;1.55;;;21.50;96.40;;;;;;5072224;28;20279;-63
2023/06/15 09:12:59;;;;;;;1.40;1.30;;;21.50;96.30;;;;;;5072431;28;20189;-63
2023/06/15 09:15:27;;;;;;;1.77;1.67;;;21.60;96.30;;;;;;5069321;28;20209;-63
2023/06/15 09:17:56;;;;;;;1.80;1.60;;;21.60;96.10;;;;;;5073335;28;20691;-64
2023/06/15 09:20:25;;;;;;;4.15;2.38;;;21.70;96.00;;;;;;5069500;28;20280;-63
2023/06/15 09:22:59;;;;;;;3.65;2.50;;;21.80;95.80;;;;;;5069524;28;20266;-63
2023/06/15 09:25:27;;;;;;;2.75;1.80;;;21.80;95.70;;;;;;5071407;28;20197;-64
2023/06/15 09:27:55;;;;;;;1.73;1.63;;;21.90;95.60;;;;;;5051503;28;20197;-63
2023/06/15 09:30:24;;;;;;;1.60;1.50;;;21.90;95.40;;;;;;5061093;28;20201;-64
2023/06/15 09:32:53;;;;;;;2.25;1.70;;;22.00;95.30;;;;;;5074383;28;20193;-64
2023/06/15 09:35:21;;;;;;;2.42;1.65;;;22.00;95.10;;;;;;5066000;28;20209;-63
2023/06/15 09:37:58;;;;;;;1.85;1.70;;;22.10;94.90;;;;;;5069145;28;20231;-63
2023/06/15 09:40:28;;;;;;;1.50;1.40;;;22.00;94.70;;;;;;5071840;28;20270;-63
2023/06/15 09:42:56;;;;;;;1.42;1.10;;;21.90;94.50;;;;;;5070043;28;20552;-64
2023/06/15 09:45:24;;;;;;;1.80;1.70;;;21.80;94.40;;;;;;5072922;28;20302;-63
2023/06/15 09:47:56;;;;;;;1.70;1.60;;;21.70;94.20;;;;;;5068757;28;20268;-64
2023/06/15 09:50:29;;;;;;;1.58;1.48;;;21.70;94.10;;;;;;5066586;28;20207;-64
2023/06/15 09:53:00;;;;;;;1.33;1.33;;;21.60;93.90;;;;;;5068861;28;20200;-65
2023/06/15 09:55:27;;;;;;;2.15;1.40;;;21.50;93.90;;;;;;5077166;28;20672;-64
2023/06/15 09:57:59;;;;;;;3.72;1.00;;;21.50;93.80;;;;;;5068959;28;20209;-64
2023/06/15 10:00:26;;;;;;;3.17;1.80;;;21.50;93.80;;;;;;5052964;28;20201;-63
2023/06/15 10:02:59;;;;;;;3.78;2.00;;;21.60;93.70;;;;;;5069816;28;20565;-63
2023/06/15 10:05:33;;;;;;;9.95;3.05;;;21.70;93.60;;;;;;5047240;28;20193;-64
2023/06/15 10:08:05;;;;;;;6.75;2.72;;;21.80;93.50;;;;;;5068183;28;20221;-63
2023/06/15 10:10:36;;;;;;;5.18;2.63;;;21.80;93.40;;;;;;5068899;28;20659;-63
2023/06/15 10:13:08;;;;;;;11.32;3.33;;;21.90;93.50;;;;;;5068358;28;20208;-63
2023/06/15 10:15:36;;;;;;;13.80;3.78;;;21.90;93.50;;;;;;5050366;28;20208;-65
2023/06/15 10:18:06;;;;;;;7.88;3.10;;;22.00;93.50;;;;;;5046547;28;20619;-65
2023/06/15 10:20:35;;;;;;;2.72;2.25;;;22.00;93.40;;;;;;5064720;28;20242;-64
2023/06/15 10:23:13;;;;;;;2.30;2.10;;;22.00;93.20;;;;;;5071990;28;20186;-65
2023/06/15 10:25:43;;;;;;;1.80;1.70;;;22.00;93.10;;;;;;5050015;28;20568;-65
2023/06/15 10:28:13;;;;;;;2.53;1.48;;;22.10;93.00;;;;;;5067941;28;20304;-64
2023/06/15 10:30:46;;;;;;;3.28;1.60;;;22.20;92.90;;;;;;5060833;28;20193;-65
2023/06/15 10:33:22;;;;;;;1.45;1.35;;;22.30;92.70;;;;;;5062211;28;20189;-65
2023/06/15 10:35:56;;;;;;;1.50;1.40;;;22.40;92.70;;;;;;5066244;28;20192;-65
2023/06/15 10:38:33;;;;;;;1.30;1.20;;;22.40;92.50;;;;;;5063025;28;20195;-62
2023/06/15 10:41:01;;;;;;;1.55;1.45;;;22.50;92.50;;;;;;5067492;28;21108;-63
2023/06/15 10:43:28;;;;;;;1.40;1.30;;;22.50;92.40;;;;;;5064173;28;20572;-64
2023/06/15 10:45:57;;;;;;;1.50;1.40;;;22.50;92.30;;;;;;5067368;28;20189;-64
2023/06/15 10:48:26;;;;;;;1.35;1.25;;;22.60;92.20;;;;;;5065162;28;20272;-64
2023/06/15 10:51:02;;;;;;;1.70;1.38;;;22.60;92.20;;;;;;5074368;28;20339;-64
2023/06/15 10:53:37;;;;;;;2.20;1.50;;;22.60;92.10;;;;;;5065596;28;20280;-64
2023/06/15 10:56:13;;;;;;;4.03;1.83;;;22.70;92.00;;;;;;5067257;28;20271;-63
2023/06/15 10:58:54;;;;;;;1.77;1.67;;;22.70;91.90;;;;;;5070162;28;20189;-63
2023/06/15 11:01:23;;;;;;;1.85;1.60;;;22.80;91.70;;;;;;5064874;28;20298;-64
2023/06/15 11:03:50;;;;;;;2.70;1.52;;;22.80;91.60;;;;;;5066566;28;20293;-65
2023/06/15 11:06:19;;;;;;;2.15;1.88;;;22.90;91.50;;;;;;5068489;28;20212;-65
2023/06/15 11:08:50;;;;;;;2.80;1.85;;;22.90;91.40;;;;;;5067330;28;20666;-65
2023/06/15 11:11:20;;;;;;;1.30;1.27;;;22.90;91.30;;;;;;5067251;28;20616;-64
2023/06/15 11:13:59;;;;;;;4.68;1.88;;;23.00;91.30;;;;;;5071307;28;20645;-63
2023/06/15 11:16:30;;;;;;;1.50;1.38;;;23.10;91.20;;;;;;5067056;28;20238;-64
2023/06/15 11:19:13;;;;;;;2.13;1.42;;;23.20;91.10;;;;;;5069439;28;20532;-64
2023/06/15 11:21:42;;;;;;;1.55;1.45;;;23.30;91.10;;;;;;5054592;28;20255;-64
2023/06/15 11:24:13;;;;;;;2.88;1.70;;;23.30;91.00;;;;;;5067204;28;20311;-63
2023/06/15 11:26:41;;;;;;;1.52;1.42;;;23.30;90.90;;;;;;5072932;28;20228;-64
2023/06/15 11:29:09;;;;;;;1.42;1.33;;;23.40;90.90;;;;;;5067551;28;20329;-64
2023/06/15 11:31:37;;;;;;;2.85;1.50;;;23.40;90.90;;;;;;5065890;28;20197;-64
2023/06/15 11:34:04;;;;;;;2.10;2.00;;;23.30;90.90;;;;;;5066750;28;20559;-64
2023/06/15 11:36:34;;;;;;;1.80;1.70;;;23.30;90.80;;;;;;5049901;28;20198;-64
2023/06/15 11:39:04;;;;;;;1.48;1.45;;;23.30;90.90;;;;;;5048566;28;20290;-64
2023/06/15 11:41:33;;;;;;;2.03;1.80;;;23.30;90.90;;;;;;5069505;28;20247;-63
2023/06/15 11:44:01;;;;;;;1.70;1.60;;;23.20;90.90;;;;;;5067440;28;20221;-63
2023/06/15 11:46:29;;;;;;;1.50;1.40;;;23.20;90.90;;;;;;5065832;28;20200;-63
2023/06/15 11:49:02;;;;;;;1.77;1.50;;;23.10;90.80;;;;;;5067235;28;20205;-63
2023/06/15 11:51:29;;;;;;;1.20;1.20;;;23.10;90.90;;;;;;5050654;28;20636;-65
2023/06/15 11:54:11;;;;;;;1.38;1.27;;;23.00;90.90;;;;;;5071127;28;20555;-66
2023/06/15 11:56:47;;;;;;;1.35;1.25;;;23.10;91.00;;;;;;5066146;28;20215;-66
2023/06/15 11:59:17;;;;;;;1.08;1.08;;;23.10;90.90;;;;;;5064041;28;20662;-65
2023/06/15 12:01:45;;;;;;;1.50;1.13;;;23.10;90.80;;;;;;5065431;28;20192;-65
2023/06/15 12:04:13;;;;;;;1.20;1.20;;;23.20;90.80;;;;;;5070410;28;20193;-65
